Time;durP1;ratioP1;P1;durP2;ratioP2;P2;SDS_P1;SDS_P2;PMS_P1;PMS_P2;Temp;Humidity;BMP_temperature;BMP_pressure;BME280_temperature;BME280_humidity;BME280_pressure;Samples;Min_cycle;Max_cycle;Signal;HPM_P1;HPM_P2
2022/12/18 00:01:33;;;;;;;4.10;3.90;;;18.50;32.30;;;;;;5021953;28;20883;-57
2022/12/18 00:04:00;;;;;;;3.63;3.43;;;18.50;32.30;;;;;;5024115;28;20454;-57
2022/12/18 00:06:27;;;;;;;4.17;3.87;;;18.50;32.30;;;;;;5021705;28;20505;-57
2022/12/18 00:08:54;;;;;;;3.60;3.40;;;18.50;32.30;;;;;;5025489;28;20819;-57
2022/12/18 00:11:22;;;;;;;3.80;3.57;;;18.50;32.30;;;;;;5026054;28;20936;-57
2022/12/18 00:13:49;;;;;;;3.90;3.70;;;18.50;32.30;;;;;;5026438;28;20454;-57
2022/12/18 00:16:20;;;;;;;4.13;3.83;;;18.50;33.10;;;;;;5026683;28;20467;-59
2022/12/18 00:18:47;;;;;;;4.20;3.90;;;18.50;32.30;;;;;;5025463;28;20429;-57
2022/12/18 00:21:13;;;;;;;3.73;3.50;;;18.50;32.30;;;;;;5025981;28;21126;-58
2022/12/18 00:23:40;;;;;;;4.07;3.83;;;18.50;32.40;;;;;;5025184;28;20418;-57
2022/12/18 00:26:10;;;;;;;2.97;2.80;;;18.50;32.30;;;;;;5025729;28;20956;-57
2022/12/18 00:28:35;;;;;;;3.77;3.57;;;18.50;32.30;;;;;;5019221;28;20877;-58
2022/12/18 00:31:07;;;;;;;3.90;3.70;;;18.40;32.20;;;;;;5021270;28;20474;-57
2022/12/18 00:33:33;;;;;;;3.80;3.60;;;18.50;32.40;;;;;;5022930;28;20317;-58
2022/12/18 00:36:06;;;;;;;4.10;3.80;;;18.40;32.20;;;;;;5022710;28;20517;-57
2022/12/18 00:38:32;;;;;;;3.10;2.90;;;18.40;32.20;;;;;;5025542;28;20723;-57
2022/12/18 00:40:57;;;;;;;3.33;3.13;;;18.40;32.20;;;;;;5024758;28;20421;-57
2022/12/18 00:43:23;;;;;;;3.83;3.63;;;18.40;32.30;;;;;;5025159;28;20327;-57
2022/12/18 00:45:48;;;;;;;3.90;3.70;;;18.50;32.30;;;;;;5025295;28;20218;-57
2022/12/18 00:48:14;;;;;;;3.20;3.00;;;18.40;32.20;;;;;;5024975;28;20227;-57
2022/12/18 00:50:40;;;;;;;3.80;3.50;;;18.40;32.20;;;;;;5025256;28;20226;-57
2022/12/18 00:53:05;;;;;;;3.70;3.50;;;18.40;32.20;;;;;;5021050;28;20297;-60
2022/12/18 00:55:31;;;;;;;4.40;4.00;;;18.40;32.20;;;;;;5019547;28;20667;-57
2022/12/18 00:57:56;;;;;;;3.90;3.70;;;18.40;32.30;;;;;;5017258;28;20223;-57
2022/12/18 01:00:22;;;;;;;3.77;3.47;;;18.40;32.30;;;;;;5026483;28;20563;-57
2022/12/18 01:02:48;;;;;;;3.87;3.67;;;18.40;32.20;;;;;;5024696;28;20280;-57
2022/12/18 01:05:14;;;;;;;3.33;3.13;;;18.40;32.20;;;;;;5023624;28;20272;-57
2022/12/18 01:07:39;;;;;;;3.70;3.50;;;18.40;32.30;;;;;;5024771;28;20947;-57
2022/12/18 01:10:06;;;;;;;3.40;3.20;;;18.40;32.20;;;;;;5025535;28;20442;-57
2022/12/18 01:12:31;;;;;;;3.40;3.20;;;18.40;32.20;;;;;;5018016;28;20223;-57
2022/12/18 01:14:57;;;;;;;3.63;3.43;;;18.40;32.30;;;;;;5021518;28;21019;-57
2022/12/18 01:17:23;;;;;;;3.40;3.20;;;18.40;32.20;;;;;;5020333;28;20227;-57
2022/12/18 01:19:48;;;;;;;3.30;3.10;;;18.40;33.00;;;;;;5018692;28;20219;-57
2022/12/18 01:22:14;;;;;;;3.53;3.33;;;18.40;32.20;;;;;;5018357;28;20232;-57
2022/12/18 01:24:40;;;;;;;3.50;3.30;;;18.40;32.30;;;;;;5022100;28;20254;-58
2022/12/18 01:27:06;;;;;;;3.23;3.03;;;18.40;32.30;;;;;;5020672;28;20227;-61
2022/12/18 01:29:31;;;;;;;3.30;3.10;;;18.40;32.20;;;;;;5022888;28;20558;-58
2022/12/18 01:31:57;;;;;;;3.37;3.17;;;18.40;32.20;;;;;;5021495;28;20662;-57
2022/12/18 01:34:23;;;;;;;3.87;3.60;;;18.40;32.20;;;;;;5019185;28;20218;-57
2022/12/18 01:36:51;;;;;;;3.40;3.20;;;18.40;32.20;;;;;;5018551;28;20748;-57
2022/12/18 01:39:17;;;;;;;3.73;3.50;;;18.40;32.20;;;;;;5015789;28;20437;-57
2022/12/18 01:42:02;;;;;;;3.57;3.37;;;18.40;32.30;;;;;;5014744;28;20456;-57
2022/12/18 01:44:52;;;;;;;3.70;3.50;;;18.40;32.20;;;;;;5019651;28;20468;-57
2022/12/18 01:47:32;;;;;;;3.77;3.57;;;18.40;32.20;;;;;;5019242;28;20880;-57
2022/12/18 01:50:00;;;;;;;3.10;2.90;;;18.40;32.30;;;;;;5016142;28;20428;-57
2022/12/18 01:52:29;;;;;;;3.20;3.00;;;18.40;32.30;;;;;;5020819;28;20874;-57
2022/12/18 01:54:56;;;;;;;3.83;3.53;;;18.40;32.30;;;;;;5018768;28;20428;-57
2022/12/18 01:57:23;;;;;;;3.20;3.00;;;18.40;32.50;;;;;;5020436;28;20842;-57
2022/12/18 01:59:52;;;;;;;3.10;2.90;;;18.40;32.20;;;;;;5021779;28;20476;-57
2022/12/18 02:02:19;;;;;;;3.53;3.33;;;18.40;32.20;;;;;;5019961;28;20572;-58
2022/12/18 02:04:45;;;;;;;3.30;3.10;;;18.40;32.40;;;;;;5016886;28;20437;-58
2022/12/18 02:07:43;;;;;;;3.00;2.80;;;18.40;32.20;;;;;;5018396;28;20423;-58
2022/12/18 02:10:19;;;;;;;3.50;3.30;;;18.40;32.20;;;;;;5002228;28;20859;-57
2022/12/18 02:12:56;;;;;;;3.20;3.00;;;18.40;32.20;;;;;;5017699;28;20491;-58
2022/12/18 02:15:35;;;;;;;2.90;2.70;;;18.40;32.20;;;;;;5017475;28;20596;-57
2022/12/18 02:18:10;;;;;;;2.80;2.70;;;18.40;32.70;;;;;;5001405;28;20865;-57
2022/12/18 02:20:51;;;;;;;3.13;2.93;;;18.40;32.20;;;;;;5018705;28;20476;-58
2022/12/18 02:23:23;;;;;;;3.33;3.13;;;18.40;32.20;;;;;;5020187;28;20477;-57
2022/12/18 02:26:09;;;;;;;3.27;3.00;;;18.40;32.20;;;;;;5022302;28;20475;-57
2022/12/18 02:28:43;;;;;;;3.20;3.00;;;18.40;32.30;;;;;;5021153;28;20422;-57
2022/12/18 02:31:14;;;;;;;2.93;2.73;;;18.40;32.20;;;;;;5018569;28;20442;-57
2022/12/18 02:33:42;;;;;;;2.97;2.77;;;18.40;32.20;;;;;;5017729;28;20579;-58
2022/12/18 02:36:09;;;;;;;3.13;2.93;;;18.40;33.00;;;;;;5022088;28;20430;-57
2022/12/18 02:38:36;;;;;;;3.23;3.03;;;18.40;32.10;;;;;;5016860;28;20450;-57
2022/12/18 02:41:03;;;;;;;3.03;2.87;;;18.40;32.10;;;;;;5018764;28;20415;-57
2022/12/18 02:43:29;;;;;;;3.50;3.20;;;18.40;32.10;;;;;;5015768;28;20522;-58
2022/12/18 02:46:00;;;;;;;2.90;2.70;;;18.40;32.20;;;;;;5017916;28;20443;-58
2022/12/18 02:48:35;;;;;;;3.73;3.53;;;18.40;32.10;;;;;;5019282;28;20536;-57
2022/12/18 02:51:32;;;;;;;3.53;3.33;;;18.40;32.10;;;;;;5018632;28;20459;-58
2022/12/18 02:54:08;;;;;;;3.37;3.17;;;18.40;31.90;;;;;;5017735;28;20451;-57
2022/12/18 02:56:50;;;;;;;3.07;2.87;;;18.40;32.00;;;;;;5018743;28;20473;-57
2022/12/18 02:59:22;;;;;;;2.97;2.80;;;18.40;32.00;;;;;;5021131;28;20452;-57
2022/12/18 03:02:18;;;;;;;3.03;2.83;;;18.40;32.10;;;;;;5018655;28;20446;-57
2022/12/18 03:05:11;;;;;;;3.00;2.80;;;18.40;32.10;;;;;;5020982;28;20419;-57
2022/12/18 03:07:51;;;;;;;3.43;3.23;;;18.40;32.20;;;;;;5007883;28;20460;-57
2022/12/18 03:10:23;;;;;;;3.07;2.87;;;18.40;32.10;;;;;;5019659;28;20446;-57
2022/12/18 03:12:57;;;;;;;3.33;3.13;;;18.40;32.20;;;;;;5018717;28;20872;-57
2022/12/18 03:15:29;;;;;;;3.27;3.07;;;18.40;32.20;;;;;;5019235;28;20453;-58
2022/12/18 03:18:08;;;;;;;3.23;3.03;;;18.40;32.20;;;;;;5018438;28;20425;-59
2022/12/18 03:20:36;;;;;;;2.97;2.83;;;18.40;32.00;;;;;;5019004;28;20445;-57
2022/12/18 03:23:12;;;;;;;2.90;2.70;;;18.40;32.20;;;;;;5019339;28;21014;-57
2022/12/18 03:25:42;;;;;;;3.50;3.30;;;18.40;32.20;;;;;;5019122;28;20421;-57
2022/12/18 03:28:12;;;;;;;3.30;3.10;;;18.40;32.20;;;;;;5019756;28;20522;-56
2022/12/18 03:30:40;;;;;;;3.30;3.00;;;18.40;32.00;;;;;;5017127;28;20838;-57
2022/12/18 03:33:25;;;;;;;3.50;3.30;;;18.40;32.00;;;;;;5019873;28;20495;-57
2022/12/18 03:35:51;;;;;;;3.33;3.13;;;18.40;32.00;;;;;;5019101;28;20429;-56
2022/12/18 03:38:16;;;;;;;3.07;2.87;;;18.40;31.90;;;;;;5021446;28;20455;-56
2022/12/18 03:41:09;;;;;;;2.93;2.73;;;18.40;31.90;;;;;;5023028;28;20210;-57
2022/12/18 03:43:44;;;;;;;2.67;2.47;;;18.40;31.80;;;;;;5020222;28;20233;-57
2022/12/18 03:46:32;;;;;;;3.00;2.80;;;18.40;31.90;;;;;;5026125;28;20455;-58
2022/12/18 03:49:19;;;;;;;2.80;2.60;;;18.40;31.80;;;;;;5022205;28;20471;-57
2022/12/18 03:52:04;;;;;;;2.90;2.70;;;18.40;31.80;;;;;;5021741;28;20446;-57
2022/12/18 03:54:31;;;;;;;3.40;3.20;;;18.40;31.80;;;;;;5025297;28;20517;-57
2022/12/18 03:57:03;;;;;;;2.77;2.57;;;18.40;31.80;;;;;;5022607;28;21933;-58
2022/12/18 03:59:30;;;;;;;2.60;2.50;;;18.40;31.70;;;;;;5023198;28;20481;-59
2022/12/18 04:01:58;;;;;;;2.87;2.67;;;18.40;31.80;;;;;;5021379;28;20420;-57
2022/12/18 04:04:25;;;;;;;2.80;2.70;;;18.40;31.80;;;;;;5020354;28;20566;-57
2022/12/18 04:06:51;;;;;;;3.60;3.30;;;18.40;31.80;;;;;;5025510;28;20434;-57
2022/12/18 04:09:18;;;;;;;2.80;2.60;;;18.40;31.80;;;;;;5020952;28;20816;-57
2022/12/18 04:11:44;;;;;;;2.73;2.53;;;18.40;31.70;;;;;;5020953;28;20478;-58
2022/12/18 04:14:09;;;;;;;3.00;2.80;;;18.40;31.70;;;;;;5020439;28;20434;-57
2022/12/18 04:16:35;;;;;;;3.57;3.37;;;18.40;31.70;;;;;;5022827;28;20995;-57
2022/12/18 04:19:01;;;;;;;2.80;2.60;;;18.40;31.80;;;;;;5023961;28;20219;-58
2022/12/18 04:21:26;;;;;;;2.93;2.73;;;18.40;31.70;;;;;;5022549;28;20936;-58
2022/12/18 04:23:52;;;;;;;3.17;2.97;;;18.40;31.70;;;;;;5027561;28;20214;-57
2022/12/18 04:26:17;;;;;;;3.47;3.27;;;18.40;31.70;;;;;;5026653;28;20675;-56
2022/12/18 04:28:43;;;;;;;3.33;3.13;;;18.40;31.70;;;;;;5024694;28;20317;-56
2022/12/18 04:31:08;;;;;;;3.30;3.10;;;18.40;31.70;;;;;;5022867;28;20660;-56
2022/12/18 04:33:34;;;;;;;3.43;3.17;;;18.40;31.70;;;;;;5022166;28;20222;-57
2022/12/18 04:35:59;;;;;;;2.80;2.60;;;18.40;31.70;;;;;;5022805;28;20659;-59
2022/12/18 04:38:25;;;;;;;2.43;2.30;;;18.40;31.70;;;;;;5022618;28;20592;-57
2022/12/18 04:40:51;;;;;;;2.90;2.70;;;18.40;31.70;;;;;;5021656;28;20230;-56
2022/12/18 04:43:16;;;;;;;2.73;2.53;;;18.40;31.60;;;;;;5021370;28;20250;-57
2022/12/18 04:45:42;;;;;;;2.40;2.30;;;18.40;31.70;;;;;;5022522;28;20305;-57
2022/12/18 04:48:08;;;;;;;2.53;2.40;;;18.40;31.70;;;;;;5023385;28;20223;-57
2022/12/18 04:50:33;;;;;;;2.67;2.47;;;18.40;31.70;;;;;;5020626;28;20218;-56
2022/12/18 04:52:59;;;;;;;2.87;2.67;;;18.40;31.70;;;;;;5021513;28;20218;-57
2022/12/18 04:55:24;;;;;;;2.97;2.77;;;18.40;31.70;;;;;;5025340;28;20218;-58
2022/12/18 04:57:50;;;;;;;2.53;2.43;;;18.40;31.60;;;;;;5020933;28;20223;-57
2022/12/18 05:00:16;;;;;;;2.93;2.73;;;18.40;31.70;;;;;;5019571;28;20681;-58
2022/12/18 05:02:41;;;;;;;3.10;2.90;;;18.40;31.70;;;;;;5021911;28;20214;-57
2022/12/18 05:05:07;;;;;;;2.90;2.70;;;18.40;31.60;;;;;;5021217;28;20223;-58
2022/12/18 05:07:33;;;;;;;2.60;2.47;;;18.40;31.60;;;;;;5016959;28;20286;-56
2022/12/18 05:09:58;;;;;;;2.40;2.30;;;18.40;31.60;;;;;;5019767;28;20465;-57
2022/12/18 05:12:25;;;;;;;2.60;2.50;;;18.40;31.70;;;;;;5020362;28;20265;-57
2022/12/18 05:14:50;;;;;;;2.70;2.50;;;18.40;31.60;;;;;;5019995;28;20276;-56
2022/12/18 05:17:16;;;;;;;3.20;3.00;;;18.40;31.70;;;;;;5022571;28;20825;-57
2022/12/18 05:19:41;;;;;;;2.80;2.60;;;18.50;31.70;;;;;;5022591;28;20626;-57
2022/12/18 05:22:07;;;;;;;2.80;2.70;;;18.50;31.70;;;;;;5022785;28;20269;-58
2022/12/18 05:24:33;;;;;;;2.87;2.73;;;18.40;31.60;;;;;;5024457;28;20214;-57
2022/12/18 05:26:59;;;;;;;3.10;2.90;;;18.50;31.60;;;;;;5021360;28;20219;-57
2022/12/18 05:29:24;;;;;;;2.97;2.77;;;18.50;31.60;;;;;;5016854;28;20632;-57
2022/12/18 05:31:50;;;;;;;3.10;2.90;;;18.50;31.60;;;;;;5019357;28;20234;-57
2022/12/18 05:34:16;;;;;;;2.63;2.43;;;18.50;31.60;;;;;;5021611;28;20227;-57
2022/12/18 05:36:41;;;;;;;2.70;2.60;;;18.50;31.60;;;;;;5018583;28;20230;-57
2022/12/18 05:39:07;;;;;;;2.90;2.70;;;18.50;31.60;;;;;;5019692;28;20234;-57
2022/12/18 05:41:32;;;;;;;2.50;2.40;;;18.50;31.60;;;;;;5023828;28;20227;-57
2022/12/18 05:43:58;;;;;;;2.80;2.60;;;18.50;31.60;;;;;;5020681;28;20273;-57
2022/12/18 05:46:24;;;;;;;2.63;2.50;;;18.50;31.60;;;;;;5021650;28;20674;-58
2022/12/18 05:48:50;;;;;;;2.53;2.43;;;18.50;31.50;;;;;;5022164;28;20449;-58
2022/12/18 05:51:18;;;;;;;2.40;2.30;;;18.50;31.50;;;;;;5016250;28;21501;-57
2022/12/18 05:53:43;;;;;;;2.73;2.57;;;18.50;31.60;;;;;;5012112;28;20772;-57
2022/12/18 05:56:12;;;;;;;2.73;2.53;;;18.50;31.50;;;;;;5021444;28;21400;-58
2022/12/18 05:58:38;;;;;;;2.80;2.60;;;18.50;31.50;;;;;;5023955;28;20227;-57
2022/12/18 06:01:14;;;;;;;3.03;2.83;;;18.50;31.50;;;;;;5020656;28;20434;-57
2022/12/18 06:03:40;;;;;;;3.10;2.90;;;18.50;31.60;;;;;;5020973;28;21174;-56
2022/12/18 06:06:17;;;;;;;2.67;2.47;;;18.50;31.60;;;;;;5024714;28;20488;-57
2022/12/18 06:08:43;;;;;;;2.43;2.33;;;18.50;31.60;;;;;;5023541;28;20265;-56
2022/12/18 06:11:08;;;;;;;2.43;2.33;;;18.50;31.60;;;;;;5024747;28;20520;-57
2022/12/18 06:13:34;;;;;;;3.07;2.87;;;18.50;31.60;;;;;;5023990;28;20229;-57
2022/12/18 06:16:03;;;;;;;2.97;2.77;;;18.50;31.60;;;;;;5023694;28;20222;-57
2022/12/18 06:18:28;;;;;;;2.97;2.77;;;18.50;31.70;;;;;;5025260;28;20218;-57
2022/12/18 06:20:56;;;;;;;3.00;2.80;;;18.50;31.60;;;;;;5021757;28;20976;-56
2022/12/18 06:23:21;;;;;;;2.83;2.63;;;18.50;31.60;;;;;;5022809;28;20618;-57
2022/12/18 06:25:47;;;;;;;2.97;2.77;;;18.50;31.60;;;;;;5019484;28;20431;-56
2022/12/18 06:28:12;;;;;;;3.43;3.23;;;18.50;31.60;;;;;;5020094;28;20586;-58
2022/12/18 06:30:38;;;;;;;2.30;2.13;;;18.50;31.70;;;;;;5017725;28;20301;-57
2022/12/18 06:33:03;;;;;;;2.73;2.53;;;18.50;31.60;;;;;;5019649;28;20249;-57
2022/12/18 06:35:29;;;;;;;3.10;2.90;;;18.50;31.60;;;;;;5021072;28;20221;-57
2022/12/18 06:37:54;;;;;;;2.43;2.33;;;18.50;31.60;;;;;;5017500;28;20269;-57
2022/12/18 06:40:20;;;;;;;3.13;2.93;;;18.50;31.60;;;;;;5004135;28;20229;-57
2022/12/18 06:42:46;;;;;;;3.00;2.80;;;18.50;31.60;;;;;;5019615;28;20222;-57
2022/12/18 06:45:11;;;;;;;3.23;3.03;;;18.50;31.60;;;;;;5020550;28;20299;-57
2022/12/18 06:47:37;;;;;;;2.90;2.70;;;18.50;31.50;;;;;;5019956;28;20642;-57
2022/12/18 06:50:03;;;;;;;2.73;2.53;;;18.50;31.50;;;;;;5018276;28;20226;-57
2022/12/18 06:52:28;;;;;;;2.60;2.50;;;18.50;31.60;;;;;;5018138;28;20274;-57
2022/12/18 06:54:54;;;;;;;2.70;2.50;;;18.50;31.60;;;;;;5018128;28;20222;-57
2022/12/18 06:57:19;;;;;;;2.57;2.37;;;18.50;31.50;;;;;;5021576;28;20250;-57
2022/12/18 06:59:45;;;;;;;3.77;3.47;;;18.50;32.30;;;;;;5020873;28;20643;-57
2022/12/18 07:02:12;;;;;;;2.20;2.10;;;18.50;31.50;;;;;;5017960;28;20754;-58
2022/12/18 07:04:37;;;;;;;2.70;2.50;;;18.50;31.50;;;;;;5019246;28;20244;-57
2022/12/18 07:07:03;;;;;;;3.03;2.83;;;18.50;31.50;;;;;;5019267;28;20937;-57
2022/12/18 07:09:28;;;;;;;2.50;2.30;;;18.50;31.50;;;;;;5017346;28;20578;-57
2022/12/18 07:11:54;;;;;;;2.70;2.60;;;18.50;31.50;;;;;;5018149;28;20235;-57
2022/12/18 07:14:19;;;;;;;2.93;2.63;;;18.50;31.50;;;;;;5019553;28;20242;-57
2022/12/18 07:16:45;;;;;;;2.43;2.33;;;18.50;31.50;;;;;;5019131;28;20220;-57
2022/12/18 07:19:10;;;;;;;2.57;2.37;;;18.50;31.50;;;;;;5020118;28;20230;-57
2022/12/18 07:21:36;;;;;;;3.27;3.07;;;18.50;31.50;;;;;;5018927;28;20207;-58
2022/12/18 07:24:01;;;;;;;2.33;2.23;;;18.50;31.50;;;;;;5019274;28;20288;-56
2022/12/18 07:26:27;;;;;;;2.83;2.63;;;18.50;31.50;;;;;;5018438;28;20955;-58
2022/12/18 07:28:56;;;;;;;2.60;2.40;;;18.50;31.40;;;;;;5015163;28;20233;-57
2022/12/18 07:31:21;;;;;;;2.90;2.70;;;18.50;31.50;;;;;;4998031;28;20584;-60
2022/12/18 07:33:47;;;;;;;2.30;2.20;;;18.50;31.50;;;;;;5018601;28;20431;-59
2022/12/18 07:36:13;;;;;;;3.20;3.00;;;18.50;31.40;;;;;;5014967;28;20234;-59
2022/12/18 07:38:39;;;;;;;2.70;2.50;;;18.50;31.40;;;;;;5022888;28;20210;-60
2022/12/18 07:41:10;;;;;;;3.00;2.80;;;18.50;31.40;;;;;;5017677;28;20593;-59
2022/12/18 07:43:36;;;;;;;2.87;2.67;;;18.50;31.40;;;;;;5018193;28;20251;-61
2022/12/18 07:46:02;;;;;;;3.93;2.60;;;18.50;32.00;;;;;;5019886;28;20422;-59
2022/12/18 07:48:28;;;;;;;2.53;2.43;;;18.50;31.50;;;;;;5020126;28;20422;-59
2022/12/18 07:50:59;;;;;;;2.63;2.43;;;18.50;31.40;;;;;;5022297;28;20321;-59
2022/12/18 07:53:26;;;;;;;2.50;2.30;;;18.50;31.50;;;;;;5023775;28;21023;-59
2022/12/18 07:55:56;;;;;;;2.80;2.60;;;18.50;31.50;;;;;;5024153;28;20438;-59
2022/12/18 07:58:21;;;;;;;2.57;2.37;;;18.50;31.50;;;;;;5020612;28;20468;-59
2022/12/18 08:00:47;;;;;;;2.80;2.60;;;18.50;31.50;;;;;;5021397;28;20975;-60
2022/12/18 08:03:12;;;;;;;2.77;2.57;;;18.50;31.50;;;;;;5016827;28;20241;-60
2022/12/18 08:05:38;;;;;;;2.97;2.77;;;18.50;31.60;;;;;;5015846;28;20219;-61
2022/12/18 08:08:04;;;;;;;2.60;2.40;;;18.50;31.50;;;;;;5016055;28;20325;-59
2022/12/18 08:10:29;;;;;;;3.10;2.90;;;18.50;31.50;;;;;;5016505;28;20345;-59
2022/12/18 08:12:55;;;;;;;3.00;2.27;;;18.50;31.50;;;;;;5013694;28;20248;-59
2022/12/18 08:15:20;;;;;;;2.80;2.60;;;18.50;31.50;;;;;;5016320;28;20218;-59
2022/12/18 08:17:46;;;;;;;2.50;2.23;;;18.50;31.50;;;;;;5014068;28;20257;-60
2022/12/18 08:20:13;;;;;;;2.90;2.70;;;18.50;31.50;;;;;;5014911;28;20242;-59
2022/12/18 08:22:39;;;;;;;3.20;3.00;;;18.50;31.50;;;;;;5009703;28;20646;-59
2022/12/18 08:25:05;;;;;;;2.93;2.70;;;18.50;31.50;;;;;;5012090;28;20426;-60
2022/12/18 08:27:31;;;;;;;2.53;2.40;;;18.50;31.50;;;;;;5024988;28;20230;-58
2022/12/18 08:29:57;;;;;;;2.70;2.50;;;18.50;31.50;;;;;;5022321;28;20887;-58
2022/12/18 08:32:24;;;;;;;2.87;2.67;;;18.50;31.50;;;;;;5021499;28;20724;-58
2022/12/18 08:34:49;;;;;;;2.50;2.30;;;18.50;31.50;;;;;;5022941;28;20751;-60
2022/12/18 08:37:15;;;;;;;2.93;2.73;;;18.50;31.50;;;;;;5021921;28;20518;-59
2022/12/18 08:39:40;;;;;;;2.53;2.33;;;18.50;31.50;;;;;;5024633;28;20215;-60
2022/12/18 08:44:50;;;;;;;3.13;2.60;;;18.50;31.50;;;;;;5019814;28;20234;-58
2022/12/18 08:47:16;;;;;;;2.73;2.53;;;18.50;31.50;;;;;;5021802;28;20922;-58
2022/12/18 08:49:41;;;;;;;2.47;2.37;;;18.50;31.50;;;;;;5017684;28;20234;-59
2022/12/18 08:52:07;;;;;;;2.40;2.30;;;18.50;31.60;;;;;;5020853;28;20345;-62
2022/12/18 08:54:32;;;;;;;2.63;2.50;;;18.50;32.30;;;;;;5020323;28;20235;-59
2022/12/18 08:56:58;;;;;;;2.80;2.60;;;18.50;31.60;;;;;;5011179;28;20223;-60
2022/12/18 08:59:23;;;;;;;3.13;2.90;;;18.50;31.50;;;;;;5012955;28;20241;-59
2022/12/18 09:01:50;;;;;;;2.43;2.33;;;18.50;31.50;;;;;;5014815;28;20226;-61
2022/12/18 09:04:15;;;;;;;2.70;2.50;;;18.50;31.50;;;;;;5020856;28;20218;-59
2022/12/18 09:06:41;;;;;;;2.60;2.40;;;18.50;31.50;;;;;;5019159;28;20431;-59
2022/12/18 09:09:06;;;;;;;2.80;2.57;;;18.50;31.40;;;;;;5018497;28;20849;-59
2022/12/18 09:11:33;;;;;;;2.37;2.17;;;18.50;31.40;;;;;;5012434;28;20895;-59
2022/12/18 09:14:00;;;;;;;2.97;2.77;;;18.50;31.50;;;;;;5016605;28;20231;-59
2022/12/18 09:16:27;;;;;;;2.43;2.23;;;18.50;31.50;;;;;;5014330;28;20438;-60
2022/12/18 09:18:59;;;;;;;2.57;2.47;;;18.50;31.50;;;;;;5011703;28;20439;-62
2022/12/18 09:21:26;;;;;;;2.97;2.77;;;18.50;31.50;;;;;;5008000;28;20457;-60
2022/12/18 09:23:54;;;;;;;3.00;2.80;;;18.50;31.60;;;;;;5016881;28;20468;-60
2022/12/18 09:26:20;;;;;;;2.60;2.50;;;18.50;31.50;;;;;;5015548;28;21025;-61
2022/12/18 09:28:46;;;;;;;3.40;2.40;;;18.50;31.60;;;;;;5011408;28;20435;-59
2022/12/18 09:31:15;;;;;;;3.63;2.43;;;18.50;31.50;;;;;;5007108;28;20451;-57
2022/12/18 09:33:41;;;;;;;2.67;2.57;;;18.60;31.50;;;;;;5013660;28;20242;-57
2022/12/18 09:36:09;;;;;;;3.10;2.90;;;18.60;31.60;;;;;;5016205;28;20930;-57
2022/12/18 09:38:35;;;;;;;2.70;2.50;;;18.50;31.50;;;;;;5013197;28;20325;-58
2022/12/18 09:41:25;;;;;;;2.80;2.60;;;18.60;31.70;;;;;;5016832;28;20483;-57
2022/12/18 09:43:56;;;;;;;3.23;2.97;;;18.50;31.50;;;;;;5015244;28;20227;-58
2022/12/18 09:46:30;;;;;;;3.10;2.90;;;18.50;31.60;;;;;;5015867;28;20427;-58
2022/12/18 09:49:00;;;;;;;3.63;3.43;;;18.50;31.50;;;;;;5015820;28;20439;-58
2022/12/18 09:51:32;;;;;;;6.57;3.27;;;18.50;31.60;;;;;;5017013;28;20483;-58
2022/12/18 09:54:03;;;;;;;2.80;2.60;;;18.50;31.60;;;;;;5014115;28;20454;-58
2022/12/18 09:56:37;;;;;;;4.13;2.60;;;18.50;31.60;;;;;;5017931;28;20571;-58
2022/12/18 09:59:04;;;;;;;3.83;3.13;;;18.50;31.70;;;;;;5010704;28;20502;-59
2022/12/18 10:01:31;;;;;;;4.30;2.60;;;18.60;31.70;;;;;;5013745;28;21085;-58
2022/12/18 10:03:57;;;;;;;3.17;2.87;;;18.60;31.60;;;;;;5012937;28;20446;-59
2022/12/18 10:06:52;;;;;;;4.20;3.00;;;18.60;31.60;;;;;;5022714;28;20467;-57
2022/12/18 10:09:41;;;;;;;7.30;2.70;;;18.60;31.60;;;;;;5021032;28;20268;-57
2022/12/18 10:12:16;;;;;;;3.00;2.80;;;18.60;31.70;;;;;;5004425;28;20434;-57
2022/12/18 10:14:57;;;;;;;2.70;2.50;;;18.60;31.60;;;;;;5021836;28;20932;-58
2022/12/18 10:17:42;;;;;;;3.20;3.00;;;18.60;31.60;;;;;;5020834;28;20440;-58
2022/12/18 10:20:23;;;;;;;2.83;2.63;;;18.60;31.60;;;;;;5020214;28;20442;-58
2022/12/18 10:23:22;;;;;;;3.87;2.97;;;18.60;31.70;;;;;;5019501;28;20467;-58
2022/12/18 10:26:06;;;;;;;3.33;3.07;;;18.60;31.70;;;;;;5020379;28;20513;-58
2022/12/18 10:28:35;;;;;;;2.87;2.67;;;18.70;31.80;;;;;;5018032;28;20959;-57
2022/12/18 10:31:01;;;;;;;2.77;2.57;;;18.60;31.70;;;;;;5018035;28;20453;-57
2022/12/18 10:33:32;;;;;;;5.20;2.80;;;18.70;31.80;;;;;;5022601;28;20440;-58
2022/12/18 10:35:57;;;;;;;2.93;2.73;;;18.70;31.80;;;;;;5017991;28;20261;-59
2022/12/18 10:38:30;;;;;;;2.70;2.50;;;18.70;31.90;;;;;;5018204;28;20435;-57
2022/12/18 10:41:18;;;;;;;2.80;2.60;;;18.70;31.80;;;;;;5017564;28;20218;-59
2022/12/18 10:43:44;;;;;;;3.33;3.13;;;18.70;31.90;;;;;;5017517;28;20468;-58
2022/12/18 10:46:09;;;;;;;3.70;3.40;;;18.70;31.90;;;;;;4999336;28;20440;-57
2022/12/18 10:48:53;;;;;;;3.00;2.80;;;18.70;31.90;;;;;;5017863;28;20227;-57
2022/12/18 10:51:33;;;;;;;2.93;2.60;;;18.70;31.80;;;;;;5008385;28;20226;-59
2022/12/18 10:54:14;;;;;;;2.60;2.50;;;18.70;31.80;;;;;;5019237;28;20434;-58
2022/12/18 10:56:40;;;;;;;2.97;2.77;;;18.80;31.90;;;;;;5018466;28;20482;-58
2022/12/18 10:59:12;;;;;;;2.80;2.60;;;18.70;31.80;;;;;;5018124;28;20977;-58
2022/12/18 11:01:52;;;;;;;2.83;2.63;;;18.80;32.70;;;;;;5017261;28;20465;-58
2022/12/18 11:04:21;;;;;;;3.00;2.80;;;18.70;31.90;;;;;;5011256;28;20427;-59
2022/12/18 11:07:02;;;;;;;2.70;2.50;;;18.80;31.90;;;;;;5008552;28;20461;-60
2022/12/18 11:09:31;;;;;;;2.67;2.57;;;18.80;31.80;;;;;;5014295;28;20461;-59
2022/12/18 11:12:03;;;;;;;2.80;2.60;;;18.80;31.80;;;;;;5016387;28;21086;-60
2022/12/18 11:14:43;;;;;;;4.03;3.27;;;18.80;31.90;;;;;;5018321;28;20426;-61
2022/12/18 11:17:20;;;;;;;2.97;2.67;;;18.80;31.80;;;;;;5017368;28;20474;-59
2022/12/18 11:19:53;;;;;;;3.13;2.93;;;18.80;31.80;;;;;;5020920;28;21402;-60
2022/12/18 11:22:23;;;;;;;3.03;2.83;;;18.80;31.80;;;;;;5018417;28;21001;-61
2022/12/18 11:25:14;;;;;;;2.80;2.60;;;18.80;32.00;;;;;;5017901;28;20468;-60
2022/12/18 11:27:40;;;;;;;3.47;3.17;;;18.80;32.00;;;;;;5013472;28;20455;-60
2022/12/18 11:30:19;;;;;;;3.30;3.00;;;18.80;31.90;;;;;;5017175;28;20477;-59
2022/12/18 11:32:49;;;;;;;3.00;2.80;;;18.80;31.80;;;;;;5014508;28;20265;-59
2022/12/18 11:35:45;;;;;;;3.47;2.63;;;18.90;31.90;;;;;;5014472;28;21044;-60
2022/12/18 11:38:30;;;;;;;2.70;2.50;;;18.90;31.90;;;;;;5016918;28;20524;-62
2022/12/18 11:42:08;;;;;;;2.53;2.33;;;18.90;32.70;;;;;;5004354;28;20442;-60
2022/12/18 11:44:14;;;;;;;3.13;2.83;;;18.90;31.80;;;;;;5013551;28;20445;-59
2022/12/18 11:46:49;;;;;;;12.43;2.97;;;18.90;31.90;;;;;;5015182;28;20431;-60
2022/12/18 11:49:41;;;;;;;3.10;2.50;;;18.90;31.90;;;;;;5016186;28;20422;-59
2022/12/18 11:52:18;;;;;;;2.90;2.70;;;18.90;31.90;;;;;;5013864;28;21010;-60
2022/12/18 11:54:43;;;;;;;3.03;2.83;;;18.90;32.00;;;;;;5019259;28;20465;-57
2022/12/18 11:57:34;;;;;;;3.87;3.67;;;18.90;32.10;;;;;;5015833;28;20930;-58
2022/12/18 12:00:14;;;;;;;3.20;3.00;;;18.90;31.90;;;;;;5013859;28;20223;-59
2022/12/18 12:03:17;;;;;;;2.93;2.60;;;18.90;31.90;;;;;;5016301;28;20473;-57
2022/12/18 12:05:52;;;;;;;3.10;2.90;;;18.90;31.90;;;;;;5018442;28;20455;-57
2022/12/18 12:08:48;;;;;;;3.03;2.77;;;18.90;31.90;;;;;;5022251;28;20455;-57
2022/12/18 12:11:35;;;;;;;5.03;4.57;;;18.90;31.90;;;;;;5018819;28;20456;-57
2022/12/18 12:14:10;;;;;;;3.07;2.87;;;18.90;31.90;;;;;;5019975;28;20949;-59
2022/12/18 12:16:39;;;;;;;3.50;3.20;;;18.90;31.90;;;;;;5014279;28;20439;-57
2022/12/18 12:19:31;;;;;;;2.90;2.70;;;18.90;32.00;;;;;;5016674;28;20452;-59
2022/12/18 12:22:19;;;;;;;3.23;3.03;;;18.90;32.00;;;;;;4995796;28;20463;-58
2022/12/18 12:25:21;;;;;;;6.13;3.60;;;18.90;32.00;;;;;;5020719;28;20560;-58
2022/12/18 12:27:49;;;;;;;3.60;3.30;;;18.90;31.90;;;;;;5021017;28;20932;-58
2022/12/18 12:30:34;;;;;;;3.07;2.70;;;18.90;32.00;;;;;;4997802;28;21049;-59
2022/12/18 12:33:25;;;;;;;5.83;5.00;;;18.90;31.90;;;;;;5019132;28;20504;-58
2022/12/18 12:36:14;;;;;;;3.57;3.27;;;18.90;32.00;;;;;;5019537;28;20488;-59
2022/12/18 12:38:49;;;;;;;3.77;3.40;;;18.90;31.90;;;;;;5017999;28;20430;-58
2022/12/18 12:44:08;;;;;;;3.67;3.30;;;18.90;32.00;;;;;;5019731;28;20454;-57
2022/12/18 12:46:38;;;;;;;4.47;3.10;;;18.90;32.00;;;;;;5017627;28;20498;-61
2022/12/18 12:49:18;;;;;;;4.07;3.87;;;18.90;31.90;;;;;;5018148;28;20471;-61
2022/12/18 12:51:50;;;;;;;3.40;3.20;;;18.90;32.00;;;;;;5018030;28;20878;-60
2022/12/18 12:54:21;;;;;;;4.97;3.80;;;18.90;32.00;;;;;;5021153;28;20877;-61
2022/12/18 12:57:01;;;;;;;3.30;3.10;;;18.90;32.00;;;;;;5019197;28;20478;-60
2022/12/18 12:59:41;;;;;;;5.40;3.50;;;18.90;32.10;;;;;;5016882;28;20460;-62
2022/12/18 13:02:44;;;;;;;3.87;3.57;;;18.90;32.00;;;;;;5017478;28;21036;-61
2022/12/18 13:05:54;;;;;;;3.90;3.50;;;18.90;31.90;;;;;;5019730;28;20495;-60
2022/12/18 13:08:29;;;;;;;3.50;3.30;;;18.90;32.70;;;;;;5019682;28;20515;-59
2022/12/18 13:13:55;;;;;;;3.13;2.93;;;18.90;32.10;;;;;;5018438;28;20929;-61
2022/12/18 13:16:23;;;;;;;3.77;3.07;;;18.90;32.00;;;;;;5018611;28;20468;-59